Time;durP1;ratioP1;P1;durP2;ratioP2;P2;SDS_P1;SDS_P2;PMS_P1;PMS_P2;Temp;Humidity;BMP_temperature;BMP_pressure;BME280_temperature;BME280_humidity;BME280_pressure;Samples;Min_cycle;Max_cycle;Signal;HPM_P1;HPM_P2
2023/01/24 00:00:28;;;;;;;53.13;22.83;;;1.70;99.90;;;;;;4997179;28;20034;-75
2023/01/24 00:02:54;;;;;;;45.80;20.95;;;1.70;99.90;;;;;;4998855;28;20041;-75
2023/01/24 00:05:20;;;;;;;50.28;21.90;;;1.60;99.90;;;;;;4998374;28;20085;-75
2023/01/24 00:07:45;;;;;;;49.10;22.17;;;1.60;99.90;;;;;;4998218;28;20022;-75
2023/01/24 00:10:12;;;;;;;52.17;22.00;;;1.60;99.90;;;;;;4998401;28;20034;-75
2023/01/24 00:12:37;;;;;;;49.42;21.50;;;1.70;99.90;;;;;;4999079;28;20549;-75
2023/01/24 00:15:04;;;;;;;46.80;21.60;;;1.70;99.90;;;;;;4999698;28;20070;-75
2023/01/24 00:17:29;;;;;;;44.63;21.80;;;1.70;99.90;;;;;;4979090;28;20042;-75
2023/01/24 00:19:55;;;;;;;45.47;20.48;;;1.80;99.90;;;;;;4995955;28;20030;-75
2023/01/24 00:22:21;;;;;;;45.20;21.30;;;1.70;99.90;;;;;;4995546;28;20429;-75
2023/01/24 00:24:48;;;;;;;50.08;21.10;;;1.70;99.90;;;;;;4996007;28;20076;-75
2023/01/24 00:27:14;;;;;;;48.97;19.92;;;1.80;99.90;;;;;;4995455;28;20025;-75
2023/01/24 00:29:40;;;;;;;49.55;21.48;;;1.80;99.90;;;;;;4995030;28;20174;-76
2023/01/24 00:32:06;;;;;;;47.17;21.23;;;1.80;99.90;;;;;;4977962;28;20022;-75
2023/01/24 00:34:31;;;;;;;44.95;20.83;;;1.80;99.90;;;;;;4995374;28;20097;-76
2023/01/24 00:36:57;;;;;;;48.55;21.48;;;1.80;99.90;;;;;;4995097;28;20022;-75
2023/01/24 00:39:23;;;;;;;48.22;21.10;;;1.80;99.90;;;;;;4995550;28;20094;-75
2023/01/24 00:41:48;;;;;;;46.97;21.17;;;1.80;99.90;;;;;;4995904;28;20049;-76
2023/01/24 00:44:14;;;;;;;52.30;21.58;;;1.80;99.90;;;;;;4995489;28;20400;-75
2023/01/24 00:46:41;;;;;;;44.30;19.73;;;1.80;99.90;;;;;;4995704;28;20100;-75
2023/01/24 00:49:06;;;;;;;46.90;21.92;;;1.80;99.90;;;;;;4996084;28;20042;-75
2023/01/24 00:51:32;;;;;;;48.28;21.20;;;1.80;99.90;;;;;;4979404;28;20145;-76
2023/01/24 00:53:58;;;;;;;44.00;19.48;;;1.80;99.90;;;;;;4996219;28;20033;-76
2023/01/24 00:56:24;;;;;;;48.85;21.90;;;1.80;99.90;;;;;;4995959;28;20041;-75
2023/01/24 00:58:49;;;;;;;44.65;21.38;;;1.80;99.90;;;;;;4994989;28;20435;-76
2023/01/24 01:01:15;;;;;;;41.03;19.15;;;1.80;99.90;;;;;;4995112;28;20026;-76
2023/01/24 01:03:41;;;;;;;46.65;19.27;;;1.80;99.90;;;;;;4995000;28;20026;-76
2023/01/24 01:06:11;;;;;;;51.60;19.85;;;1.90;99.90;;;;;;4995297;28;20141;-76
2023/01/24 01:08:37;;;;;;;40.03;18.10;;;1.90;99.90;;;;;;4995305;28;20033;-76
2023/01/24 01:11:03;;;;;;;35.08;17.83;;;1.90;99.90;;;;;;4996225;28;20027;-76
2023/01/24 01:13:29;;;;;;;38.05;17.80;;;2.00;99.90;;;;;;4977711;28;20031;-76
2023/01/24 01:16:13;;;;;;;38.85;18.25;;;1.90;99.90;;;;;;4977896;28;20034;-76
2023/01/24 01:18:39;;;;;;;36.72;18.90;;;1.90;99.90;;;;;;4995163;28;20034;-76
2023/01/24 01:21:06;;;;;;;40.35;17.95;;;1.90;99.90;;;;;;4995123;28;20430;-76
2023/01/24 01:23:32;;;;;;;41.08;17.88;;;1.90;99.90;;;;;;4994668;28;20508;-76
2023/01/24 01:26:03;;;;;;;40.95;18.55;;;1.90;99.90;;;;;;4994514;28;20495;-76
2023/01/24 01:28:29;;;;;;;33.75;17.15;;;1.90;99.90;;;;;;4995842;28;20041;-76
2023/01/24 01:30:55;;;;;;;36.72;18.02;;;1.90;99.90;;;;;;4977834;28;20037;-76
2023/01/24 01:33:22;;;;;;;36.03;17.35;;;1.90;99.90;;;;;;4977584;28;20026;-76
2023/01/24 01:35:49;;;;;;;38.50;18.50;;;1.90;99.90;;;;;;4994462;28;20030;-76
2023/01/24 01:38:16;;;;;;;32.50;16.58;;;1.90;99.90;;;;;;4993976;28;20113;-75
2023/01/24 01:40:42;;;;;;;34.45;17.73;;;1.90;99.90;;;;;;4994770;28;20123;-76
2023/01/24 01:43:14;;;;;;;32.10;15.18;;;1.90;99.90;;;;;;4994224;28;20030;-76
2023/01/24 01:45:46;;;;;;;36.13;17.08;;;2.00;99.90;;;;;;4976744;28;20495;-76
2023/01/24 01:48:18;;;;;;;30.25;16.25;;;2.00;99.90;;;;;;4994675;28;20033;-76
2023/01/24 01:50:57;;;;;;;33.90;16.63;;;2.00;99.90;;;;;;4995498;28;20024;-75
2023/01/24 01:53:27;;;;;;;32.00;15.75;;;2.00;99.90;;;;;;4978043;28;20030;-75
2023/01/24 01:55:59;;;;;;;36.72;16.27;;;1.90;99.90;;;;;;4978158;28;20023;-75
2023/01/24 01:58:25;;;;;;;33.03;16.75;;;2.00;99.90;;;;;;4995861;28;20046;-75
2023/01/24 02:00:51;;;;;;;32.80;16.83;;;2.00;99.90;;;;;;4995716;28;20037;-76
2023/01/24 02:03:39;;;;;;;28.75;15.90;;;2.00;99.90;;;;;;4997424;28;20380;-76
2023/01/24 02:06:31;;;;;;;31.33;16.02;;;1.90;99.90;;;;;;4996725;28;20030;-75
2023/01/24 02:08:57;;;;;;;34.40;16.98;;;1.90;99.90;;;;;;4974168;28;20062;-75
2023/01/24 02:11:39;;;;;;;37.13;17.23;;;2.00;99.90;;;;;;4998864;28;20381;-75
2023/01/24 02:16:56;;;;;;;30.85;15.40;;;1.90;99.90;;;;;;4998061;28;20085;-75
2023/01/24 02:19:21;;;;;;;34.67;16.48;;;1.90;99.90;;;;;;4997504;28;20400;-76
2023/01/24 02:21:52;;;;;;;29.35;14.75;;;2.00;99.90;;;;;;4998439;28;20030;-75
2023/01/24 02:24:26;;;;;;;31.55;16.10;;;1.90;99.90;;;;;;4998596;28;20490;-75
2023/01/24 02:26:52;;;;;;;28.70;15.10;;;1.90;99.90;;;;;;4998387;28;20105;-75
2023/01/24 02:29:20;;;;;;;32.00;15.73;;;2.00;99.90;;;;;;4998847;28;20062;-75
2023/01/24 02:32:05;;;;;;;31.52;15.45;;;1.90;99.90;;;;;;4998397;28;20033;-75
2023/01/24 02:34:31;;;;;;;33.60;15.82;;;2.00;99.90;;;;;;4997524;28;20057;-75
2023/01/24 02:37:09;;;;;;;30.27;16.08;;;2.00;99.90;;;;;;4997520;28;20057;-75
2023/01/24 02:39:59;;;;;;;28.52;16.45;;;2.00;99.90;;;;;;4997661;28;20060;-75
2023/01/24 02:42:33;;;;;;;31.42;16.10;;;2.00;99.90;;;;;;4997939;28;20366;-76
2023/01/24 02:45:13;;;;;;;29.77;16.20;;;1.90;99.90;;;;;;4982189;28;20432;-75
2023/01/24 02:47:43;;;;;;;28.55;15.10;;;2.00;99.90;;;;;;4980460;28;20377;-76
2023/01/24 02:50:10;;;;;;;33.55;15.60;;;1.90;99.90;;;;;;4997957;28;20105;-76
2023/01/24 02:55:20;;;;;;;32.88;16.13;;;1.90;99.90;;;;;;4998484;28;20092;-76
2023/01/24 03:00:30;;;;;;;36.75;17.70;;;1.90;99.90;;;;;;4997696;28;20041;-76
2023/01/24 03:02:55;;;;;;;34.85;17.33;;;1.90;99.90;;;;;;4980956;28;20026;-76
2023/01/24 03:05:21;;;;;;;32.50;16.08;;;1.90;99.90;;;;;;4997848;28;20384;-76
2023/01/24 03:07:47;;;;;;;33.30;16.73;;;1.90;99.90;;;;;;4998136;28;20521;-75
2023/01/24 03:10:17;;;;;;;34.78;17.48;;;1.90;99.90;;;;;;4998147;28;20038;-76
2023/01/24 03:34:49;;;;;;;35.15;16.90;;;1.90;99.90;;;;;;4998325;28;20040;-76
2023/01/24 03:39:53;;;;;;;36.10;17.65;;;1.90;99.90;;;;;;4997245;28;20468;-76
2023/01/24 03:40:06;;;;;;;35.75;16.95;;;1.90;99.90;;;;;;4997679;28;20424;-76
2023/01/24 03:42:32;;;;;;;38.38;17.33;;;1.90;99.90;;;;;;4997733;28;20022;-76
2023/01/24 03:44:57;;;;;;;36.70;17.08;;;1.90;99.90;;;;;;4997678;28;20034;-76
2023/01/24 03:47:23;;;;;;;35.00;16.65;;;1.90;99.90;;;;;;4998517;28;20068;-76
2023/01/24 03:52:33;;;;;;;39.40;17.67;;;1.90;99.90;;;;;;4997151;28;20287;-75
2023/01/24 03:55:00;;;;;;;38.42;18.67;;;1.90;99.90;;;;;;4996375;28;20495;-75
2023/01/24 03:57:27;;;;;;;39.53;18.50;;;1.90;99.90;;;;;;4995927;28;20037;-76
2023/01/24 03:59:53;;;;;;;38.67;17.85;;;2.00;99.90;;;;;;4978947;28;20042;-76
2023/01/24 04:02:19;;;;;;;34.35;16.60;;;2.00;99.90;;;;;;4979124;28;20031;-76
2023/01/24 04:07:29;;;;;;;39.42;17.08;;;1.90;99.90;;;;;;4997851;28;20033;-76
2023/01/24 04:09:55;;;;;;;36.53;17.45;;;2.00;99.90;;;;;;4998201;28;20065;-76
2023/01/24 04:12:20;;;;;;;36.90;17.67;;;1.90;99.90;;;;;;4998446;28;20456;-76
2023/01/24 04:14:46;;;;;;;36.10;16.83;;;2.00;99.90;;;;;;4979731;28;20022;-76
2023/01/24 04:17:12;;;;;;;39.17;18.05;;;2.00;99.90;;;;;;4979404;28;20101;-76
2023/01/24 04:19:37;;;;;;;30.40;15.38;;;1.90;99.90;;;;;;4997219;28;20435;-76
2023/01/24 04:22:03;;;;;;;32.80;16.33;;;2.00;99.90;;;;;;4997562;28;20018;-76
2023/01/24 04:24:29;;;;;;;37.92;17.48;;;1.90;99.90;;;;;;4997473;28;20030;-76
2023/01/24 04:26:54;;;;;;;35.47;16.42;;;1.90;99.90;;;;;;4980263;28;20502;-76
2023/01/24 04:29:20;;;;;;;37.95;17.15;;;2.00;99.90;;;;;;4980968;28;20057;-76
2023/01/24 04:31:46;;;;;;;32.40;16.98;;;1.90;99.90;;;;;;4997440;28;20033;-77
2023/01/24 04:34:11;;;;;;;34.28;17.20;;;2.00;99.90;;;;;;4997554;28;20499;-77
2023/01/24 04:36:37;;;;;;;33.00;16.33;;;1.90;99.90;;;;;;4997324;28;20022;-77
2023/01/24 04:39:03;;;;;;;32.75;16.17;;;1.90;99.90;;;;;;4979432;28;20046;-77
2023/01/24 04:41:28;;;;;;;32.67;15.55;;;2.00;99.90;;;;;;4980536;28;20026;-77
2023/01/24 04:43:54;;;;;;;35.40;17.17;;;2.00;99.90;;;;;;4997296;28;20081;-77
2023/01/24 04:46:20;;;;;;;35.65;17.60;;;1.90;99.90;;;;;;4997999;28;20022;-77
2023/01/24 04:48:46;;;;;;;36.15;16.38;;;1.90;99.90;;;;;;4998484;28;20084;-77
2023/01/24 04:51:11;;;;;;;34.47;15.95;;;2.00;99.90;;;;;;4980914;28;20038;-78
2023/01/24 04:53:41;;;;;;;34.75;17.05;;;1.90;99.90;;;;;;4998534;28;20026;-77
2023/01/24 04:56:07;;;;;;;36.15;16.88;;;1.90;99.90;;;;;;4981302;28;20029;-78
2023/01/24 04:58:34;;;;;;;32.55;17.52;;;2.00;99.90;;;;;;4998832;28;20038;-78
2023/01/24 05:00:59;;;;;;;34.67;15.82;;;1.90;99.90;;;;;;4980843;28;20029;-78
2023/01/24 05:03:25;;;;;;;38.28;18.20;;;2.00;99.90;;;;;;4981001;28;20026;-78
2023/01/24 05:05:51;;;;;;;36.65;18.08;;;2.00;99.90;;;;;;4996946;28;20019;-78
2023/01/24 05:08:17;;;;;;;36.30;17.20;;;2.00;99.90;;;;;;4998260;28;20052;-78
2023/01/24 05:10:43;;;;;;;34.75;17.00;;;2.00;99.90;;;;;;4999319;28;20030;-78
2023/01/24 05:13:08;;;;;;;34.25;17.20;;;2.00;99.90;;;;;;4998528;28;20027;-78
2023/01/24 05:15:34;;;;;;;36.78;17.70;;;2.00;99.90;;;;;;4977472;28;20036;-80
2023/01/24 05:18:01;;;;;;;42.63;17.60;;;2.00;99.90;;;;;;4995225;28;20465;-80
2023/01/24 05:20:26;;;;;;;41.90;18.40;;;1.90;99.90;;;;;;4977709;28;20424;-79
2023/01/24 05:22:54;;;;;;;42.95;17.00;;;1.90;99.90;;;;;;4994851;28;20113;-77
2023/01/24 05:25:20;;;;;;;40.87;18.33;;;2.00;99.90;;;;;;4994671;28;20027;-78
2023/01/24 05:27:45;;;;;;;39.22;18.55;;;1.90;99.90;;;;;;4994549;28;20264;-77
2023/01/24 05:30:12;;;;;;;39.53;17.85;;;2.00;99.90;;;;;;4977090;28;20068;-81
2023/01/24 05:32:37;;;;;;;42.00;18.42;;;2.00;99.90;;;;;;4977465;28;20026;-79
2023/01/24 05:35:04;;;;;;;42.45;17.50;;;1.90;99.90;;;;;;4994716;28;20464;-80
2023/01/24 05:37:31;;;;;;;38.38;17.95;;;1.90;99.90;;;;;;4994100;28;20492;-81
2023/01/24 05:39:56;;;;;;;34.05;18.00;;;2.00;99.90;;;;;;4994563;28;20033;-78
2023/01/24 05:42:22;;;;;;;44.15;18.63;;;2.00;99.90;;;;;;4994025;28;20465;-78
2023/01/24 05:44:48;;;;;;;40.00;18.88;;;2.00;99.90;;;;;;4978581;28;20384;-80
2023/01/24 05:47:13;;;;;;;36.58;18.73;;;2.00;99.90;;;;;;4998469;28;20031;-77
2023/01/24 05:49:39;;;;;;;41.70;19.98;;;2.00;99.90;;;;;;4980746;28;20096;-77
2023/01/24 05:52:05;;;;;;;39.00;17.70;;;2.00;99.90;;;;;;4999053;28;20105;-76
2023/01/24 05:54:30;;;;;;;36.60;18.23;;;2.00;99.90;;;;;;4998175;28;20045;-78
2023/01/24 05:56:56;;;;;;;33.42;18.38;;;2.00;99.90;;;;;;4980311;28;20052;-77
2023/01/24 05:59:21;;;;;;;40.92;19.92;;;2.00;99.90;;;;;;4997526;28;20121;-77
2023/01/24 06:01:47;;;;;;;39.50;18.23;;;2.00;99.90;;;;;;4980219;28;20030;-78
2023/01/24 06:04:13;;;;;;;48.25;20.83;;;2.00;99.90;;;;;;4980908;28;20031;-78
2023/01/24 06:06:39;;;;;;;40.97;19.80;;;2.00;99.90;;;;;;4997621;28;20022;-77
2023/01/24 06:09:04;;;;;;;40.72;18.98;;;2.00;99.90;;;;;;4979866;28;20045;-78
2023/01/24 06:11:32;;;;;;;37.30;17.55;;;2.00;99.90;;;;;;4998001;28;20029;-77
2023/01/24 06:13:58;;;;;;;39.53;19.05;;;2.00;99.90;;;;;;4997946;28;20026;-77
2023/01/24 06:16:25;;;;;;;49.90;20.92;;;2.00;99.90;;;;;;4997915;28;20030;-77
2023/01/24 06:18:52;;;;;;;41.58;19.17;;;2.00;99.90;;;;;;4998013;28;20129;-78
2023/01/24 06:21:27;;;;;;;41.67;17.85;;;2.00;99.90;;;;;;4997854;28;20045;-79
2023/01/24 06:23:53;;;;;;;38.00;19.58;;;2.00;99.90;;;;;;4998020;28;20025;-78
2023/01/24 06:26:19;;;;;;;38.17;18.50;;;2.00;99.90;;;;;;4980559;28;20030;-78
2023/01/24 06:28:45;;;;;;;42.72;19.23;;;2.00;99.90;;;;;;4997369;28;20030;-77
2023/01/24 06:31:34;;;;;;;38.42;18.73;;;2.00;99.90;;;;;;4996811;28;20030;-77
2023/01/24 06:34:18;;;;;;;40.95;18.75;;;2.00;99.90;;;;;;4997547;28;20022;-77
2023/01/24 06:36:53;;;;;;;42.28;19.05;;;2.00;99.90;;;;;;4980249;28;20117;-77
2023/01/24 06:39:22;;;;;;;42.10;18.90;;;2.00;99.90;;;;;;4979551;28;20050;-77
2023/01/24 06:41:49;;;;;;;43.70;20.30;;;2.00;99.90;;;;;;4997781;28;20026;-77
2023/01/24 06:44:14;;;;;;;41.08;19.80;;;2.00;99.90;;;;;;4996933;28;20022;-77
2023/01/24 06:46:40;;;;;;;41.60;19.30;;;2.00;99.90;;;;;;4997138;28;20037;-77
2023/01/24 06:49:06;;;;;;;50.47;20.55;;;2.10;99.90;;;;;;4997489;28;20035;-77
2023/01/24 06:51:32;;;;;;;40.25;19.23;;;2.00;99.90;;;;;;4980706;28;20038;-76
2023/01/24 06:53:58;;;;;;;42.30;20.80;;;2.00;99.90;;;;;;4996769;28;20026;-76
2023/01/24 06:56:24;;;;;;;50.65;20.52;;;2.00;99.90;;;;;;4996389;28;20464;-77
2023/01/24 06:58:49;;;;;;;44.40;19.55;;;2.00;99.90;;;;;;4996772;28;20034;-77
2023/01/24 07:01:15;;;;;;;51.33;20.75;;;2.10;99.90;;;;;;4979403;28;20086;-77
2023/01/24 07:03:41;;;;;;;42.30;19.55;;;2.00;99.90;;;;;;4996754;28;20026;-77
2023/01/24 07:06:07;;;;;;;44.65;20.48;;;2.00;99.90;;;;;;4996528;28;20022;-77
2023/01/24 07:08:32;;;;;;;45.55;20.13;;;2.00;99.90;;;;;;4996759;28;20073;-77
2023/01/24 07:10:58;;;;;;;44.60;19.92;;;2.10;99.90;;;;;;4996579;28;20034;-78
2023/01/24 07:13:24;;;;;;;48.83;20.08;;;2.00;99.90;;;;;;4996770;28;20065;-78
2023/01/24 07:15:50;;;;;;;46.00;21.05;;;2.10;99.90;;;;;;4979009;28;20050;-78
2023/01/24 07:18:18;;;;;;;43.17;20.38;;;2.10;99.90;;;;;;4996910;28;20038;-78
2023/01/24 07:20:45;;;;;;;49.38;20.65;;;2.10;99.90;;;;;;4996388;28;20030;-77
2023/01/24 07:23:32;;;;;;;47.80;20.98;;;2.10;99.90;;;;;;4979026;28;20068;-77
2023/01/24 07:25:58;;;;;;;51.60;21.08;;;2.10;99.90;;;;;;4979136;28;20030;-77
2023/01/24 07:28:24;;;;;;;42.53;19.40;;;2.10;99.90;;;;;;4978983;28;20030;-77
2023/01/24 07:30:52;;;;;;;47.97;21.80;;;2.10;99.90;;;;;;4995963;28;20461;-77
2023/01/24 07:33:18;;;;;;;52.57;21.53;;;2.20;99.90;;;;;;4978735;28;20380;-77
2023/01/24 07:35:44;;;;;;;49.35;19.90;;;2.20;99.90;;;;;;4996106;28;20023;-77
2023/01/24 07:38:11;;;;;;;44.42;19.85;;;;;;;;;;4996241;28;20518;-76
2023/01/24 07:40:37;;;;;;;47.63;21.17;;;2.20;99.90;;;;;;4995777;28;20057;-77
2023/01/24 07:43:04;;;;;;;40.58;18.58;;;2.20;99.90;;;;;;4996158;28;20033;-77
2023/01/24 07:45:30;;;;;;;41.63;19.63;;;2.20;99.90;;;;;;4978084;28;20029;-78
2023/01/24 07:47:57;;;;;;;43.58;19.23;;;2.20;99.90;;;;;;4978819;28;20117;-78
2023/01/24 07:50:24;;;;;;;48.42;20.80;;;2.20;99.90;;;;;;4978852;28;20473;-79
2023/01/24 07:52:51;;;;;;;43.75;19.95;;;2.20;99.90;;;;;;4996084;28;20384;-79
2023/01/24 07:55:17;;;;;;;44.70;20.73;;;2.20;99.90;;;;;;4978481;28;20030;-79
2023/01/24 07:57:43;;;;;;;50.10;20.50;;;2.20;99.90;;;;;;4978481;28;20026;-80
2023/01/24 08:00:09;;;;;;;46.60;21.42;;;2.30;99.90;;;;;;4978354;28;20145;-80
2023/01/24 08:02:35;;;;;;;40.88;20.73;;;2.30;99.90;;;;;;4995914;28;20392;-80
2023/01/24 08:05:00;;;;;;;47.80;20.48;;;2.30;99.90;;;;;;4995485;28;20034;-80
2023/01/24 08:07:26;;;;;;;50.40;23.08;;;2.30;99.90;;;;;;4977916;28;20037;-79
2023/01/24 08:09:52;;;;;;;46.97;21.48;;;2.30;99.90;;;;;;4995711;28;20029;-79
2023/01/24 08:12:17;;;;;;;49.40;22.02;;;2.40;99.90;;;;;;4978217;28;20026;-80
2023/01/24 08:14:43;;;;;;;44.00;20.88;;;2.30;99.90;;;;;;4978417;28;20026;-80
2023/01/24 08:17:10;;;;;;;53.03;20.55;;;2.40;99.90;;;;;;4995883;28;20022;-80
2023/01/24 08:19:35;;;;;;;47.70;20.45;;;2.40;99.90;;;;;;4995495;28;20034;-80
2023/01/24 08:22:02;;;;;;;44.95;20.95;;;2.40;99.90;;;;;;4978157;28;20104;-80
2023/01/24 08:24:28;;;;;;;40.03;20.02;;;2.50;99.90;;;;;;4978555;28;20037;-79
2023/01/24 08:26:54;;;;;;;41.65;20.13;;;2.50;99.90;;;;;;4995702;28;20026;-79
2023/01/24 08:29:20;;;;;;;45.28;19.98;;;2.50;99.90;;;;;;4995412;28;20026;-80
2023/01/24 08:31:48;;;;;;;44.50;20.17;;;2.50;99.90;;;;;;4995242;28;20055;-79
2023/01/24 08:34:14;;;;;;;48.40;20.33;;;2.50;99.90;;;;;;4995170;28;20428;-79
2023/01/24 08:36:39;;;;;;;44.78;20.38;;;2.50;99.90;;;;;;4995107;28;20033;-79
2023/01/24 08:39:05;;;;;;;43.63;20.02;;;2.50;99.90;;;;;;4995054;28;20057;-78
2023/01/24 08:41:31;;;;;;;39.50;18.95;;;2.50;99.90;;;;;;4977583;28;20426;-78
2023/01/24 08:43:56;;;;;;;46.05;19.25;;;2.50;99.90;;;;;;4977779;28;20499;-78
2023/01/24 08:46:22;;;;;;;47.15;20.75;;;2.50;99.90;;;;;;4994759;28;20452;-78
2023/01/24 08:48:48;;;;;;;45.53;20.15;;;2.50;99.90;;;;;;4994606;28;20036;-78
2023/01/24 08:51:13;;;;;;;49.50;21.38;;;2.50;99.90;;;;;;4995051;28;20033;-78
2023/01/24 08:53:39;;;;;;;45.55;20.67;;;2.60;99.90;;;;;;4977713;28;20026;-78
2023/01/24 08:56:06;;;;;;;45.67;19.75;;;2.50;99.90;;;;;;4994665;28;20061;-78
2023/01/24 08:58:33;;;;;;;45.15;20.77;;;2.50;99.90;;;;;;4994708;28;20030;-78
2023/01/24 09:01:00;;;;;;;50.35;20.90;;;2.50;99.90;;;;;;4977809;28;20026;-78
2023/01/24 09:03:26;;;;;;;45.30;20.27;;;2.60;99.90;;;;;;4994114;28;20081;-78
2023/01/24 09:05:59;;;;;;;48.40;21.60;;;2.60;99.90;;;;;;4977248;28;20081;-78
2023/01/24 09:08:25;;;;;;;47.03;21.30;;;2.60;99.90;;;;;;4976983;28;20527;-78
2023/01/24 09:10:51;;;;;;;46.58;21.73;;;2.60;99.90;;;;;;4977073;28;20058;-80
2023/01/24 09:13:16;;;;;;;44.17;20.35;;;2.60;99.90;;;;;;4977249;28;20058;-79
2023/01/24 09:15:42;;;;;;;46.50;21.17;;;2.60;99.90;;;;;;4995108;28;20030;-78
2023/01/24 09:18:08;;;;;;;55.78;21.35;;;2.50;99.90;;;;;;4995209;28;20058;-78
2023/01/24 09:20:34;;;;;;;41.55;20.42;;;2.60;99.90;;;;;;4998223;28;20072;-79
2023/01/24 09:23:00;;;;;;;44.40;21.52;;;2.60;99.90;;;;;;4981317;28;20054;-78
2023/01/24 09:25:26;;;;;;;50.50;22.13;;;2.60;99.90;;;;;;4981221;28;20053;-78
2023/01/24 09:27:55;;;;;;;44.05;20.73;;;2.60;99.90;;;;;;4981230;28;20465;-78
2023/01/24 09:30:22;;;;;;;49.47;21.90;;;2.60;99.90;;;;;;4998533;28;20030;-78
2023/01/24 09:32:48;;;;;;;49.33;22.23;;;2.60;99.90;;;;;;4981040;28;20479;-78
2023/01/24 09:35:14;;;;;;;48.40;21.75;;;2.60;99.90;;;;;;4981004;28;20057;-78
2023/01/24 09:37:42;;;;;;;47.75;21.65;;;2.60;99.90;;;;;;4997707;28;20129;-78
2023/01/24 09:40:42;;;;;;;48.90;21.98;;;2.60;99.90;;;;;;4997659;28;20132;-78
2023/01/24 09:43:37;;;;;;;49.83;20.38;;;2.60;99.90;;;;;;4981074;28;20080;-77
2023/01/24 09:46:15;;;;;;;50.20;21.85;;;2.60;99.90;;;;;;4998277;28;20022;-77
2023/01/24 09:48:42;;;;;;;50.55;21.92;;;2.60;99.90;;;;;;4998384;28;20041;-77
2023/01/24 09:51:24;;;;;;;48.08;21.17;;;2.60;99.90;;;;;;4980384;28;20035;-77
2023/01/24 09:53:53;;;;;;;48.35;21.83;;;2.60;99.90;;;;;;4998111;28;20118;-78
2023/01/24 09:56:36;;;;;;;44.47;20.20;;;2.60;99.90;;;;;;4981187;28;20026;-78
2023/01/24 09:59:20;;;;;;;49.22;21.00;;;2.60;99.90;;;;;;4998253;28;20413;-77
2023/01/24 10:01:50;;;;;;;46.65;21.95;;;2.60;99.90;;;;;;4997724;28;20031;-77
2023/01/24 10:04:20;;;;;;;47.70;21.65;;;2.60;99.90;;;;;;4997976;28;20054;-78
2023/01/24 10:07:22;;;;;;;43.88;19.73;;;2.60;99.90;;;;;;4997895;28;20033;-78
2023/01/24 10:10:03;;;;;;;41.35;19.60;;;2.70;99.90;;;;;;4981015;28;20089;-78
2023/01/24 10:12:48;;;;;;;41.13;19.90;;;2.60;99.90;;;;;;4979921;28;20022;-78
2023/01/24 10:15:37;;;;;;;48.97;19.92;;;2.60;99.90;;;;;;4997561;28;20037;-78
2023/01/24 10:18:27;;;;;;;45.20;21.17;;;2.70;99.90;;;;;;4980773;28;20030;-78
2023/01/24 10:21:11;;;;;;;44.38;20.55;;;2.60;99.90;;;;;;4979992;28;20389;-78
2023/01/24 10:23:41;;;;;;;46.47;21.27;;;2.60;99.90;;;;;;4997228;28;20019;-78
2023/01/24 10:26:20;;;;;;;38.33;19.15;;;2.70;99.90;;;;;;4979720;28;20033;-78
2023/01/24 10:28:52;;;;;;;50.15;21.95;;;2.70;99.90;;;;;;4980098;28;20472;-77
2023/01/24 10:31:28;;;;;;;43.00;20.48;;;2.80;99.90;;;;;;4980030;28;20031;-77
2023/01/24 10:34:17;;;;;;;45.30;21.23;;;2.80;99.90;;;;;;4997524;28;20033;-77
2023/01/24 10:36:57;;;;;;;49.00;20.02;;;2.80;99.90;;;;;;4979921;28;20481;-77
2023/01/24 10:39:23;;;;;;;42.70;20.08;;;2.80;99.90;;;;;;4979335;28;20065;-77
2023/01/24 10:41:49;;;;;;;47.13;20.42;;;2.80;99.90;;;;;;4998306;28;20030;-77
2023/01/24 10:44:25;;;;;;;45.17;19.73;;;2.80;99.90;;;;;;4997175;28;20603;-78
2023/01/24 10:47:12;;;;;;;39.55;19.88;;;2.90;99.90;;;;;;4997346;28;20026;-77
2023/01/24 10:49:41;;;;;;;44.00;20.10;;;2.90;99.90;;;;;;4998623;28;20069;-78
2023/01/24 10:52:07;;;;;;;;;;;2.90;99.90;;;;;;4981907;28;20034;-78
2023/01/24 10:54:57;;;;;;;40.00;19.77;;;3.00;99.90;;;;;;4997501;28;20318;-77
2023/01/24 10:57:38;;;;;;;40.08;18.52;;;3.00;99.90;;;;;;4997664;28;20073;-78
2023/01/24 11:00:30;;;;;;;39.58;18.23;;;3.00;99.90;;;;;;4981258;28;20134;-78
2023/01/24 11:02:58;;;;;;;37.40;18.92;;;3.00;99.90;;;;;;4998555;28;20053;-78
2023/01/24 11:05:34;;;;;;;41.58;19.10;;;3.00;99.90;;;;;;4981385;28;20030;-78
2023/01/24 11:08:00;;;;;;;35.78;17.45;;;3.00;99.90;;;;;;4979163;28;20064;-77
2023/01/24 11:10:31;;;;;;;38.35;18.48;;;3.00;99.90;;;;;;4998222;28;20524;-78
2023/01/24 11:13:01;;;;;;;44.45;21.05;;;2.90;99.90;;;;;;4980975;28;20396;-77
2023/01/24 11:15:30;;;;;;;42.35;19.70;;;3.00;99.90;;;;;;4997253;28;20022;-78
2023/01/24 11:17:57;;;;;;;;;;;3.00;99.90;;;;;;4982955;28;20384;-78
2023/01/24 11:20:33;;;;;;;38.88;18.23;;;3.00;99.90;;;;;;4982752;28;19914;-78
2023/01/24 11:23:27;;;;;;;40.35;18.70;;;3.10;99.90;;;;;;4981579;28;20066;-78
2023/01/24 11:26:01;;;;;;;36.08;18.17;;;3.00;99.90;;;;;;4995922;28;20034;-78
2023/01/24 11:28:35;;;;;;;39.63;19.95;;;3.00;99.90;;;;;;4998926;28;20362;-78
2023/01/24 11:31:10;;;;;;;35.58;17.23;;;3.00;99.90;;;;;;4980735;28;20113;-78
2023/01/24 11:33:55;;;;;;;33.53;16.48;;;3.00;99.90;;;;;;4979398;28;20038;-78
2023/01/24 11:36:38;;;;;;;39.03;18.02;;;2.90;99.90;;;;;;4997802;28;20023;-78
2023/01/24 11:39:25;;;;;;;40.63;19.13;;;2.90;99.90;;;;;;4979972;28;20480;-79
2023/01/24 11:42:01;;;;;;;31.33;15.50;;;3.00;99.90;;;;;;4996383;28;20026;-79
2023/01/24 11:45:13;;;;;;;32.63;16.52;;;2.90;99.90;;;;;;4981027;28;20384;-79
2023/01/24 11:48:04;;;;;;;34.00;17.27;;;3.00;99.90;;;;;;4982661;28;20124;-78
2023/01/24 11:50:32;;;;;;;32.33;15.38;;;3.00;99.90;;;;;;4977892;28;20053;-78
2023/01/24 11:53:47;;;;;;;31.17;16.15;;;2.90;99.90;;;;;;4978276;28;20026;-79
2023/01/24 11:56:31;;;;;;;40.05;19.40;;;2.90;99.90;;;;;;4943997;28;20062;-79
2023/01/24 11:59:26;;;;;;;40.67;16.75;;;2.90;99.90;;;;;;4996990;28;20062;-79
2023/01/24 12:02:07;;;;;;;37.50;17.92;;;3.00;99.90;;;;;;4976050;28;20041;-80
2023/01/24 12:04:38;;;;;;;31.42;17.52;;;3.00;99.90;;;;;;4996402;28;20060;-80
2023/01/24 12:07:21;;;;;;;38.05;17.92;;;3.00;99.90;;;;;;4979345;28;20054;-79
2023/01/24 12:10:11;;;;;;;35.78;16.63;;;2.90;99.90;;;;;;4978256;28;20030;-79
2023/01/24 12:12:58;;;;;;;35.42;17.10;;;3.00;99.90;;;;;;4978816;28;20027;-80
2023/01/24 12:15:30;;;;;;;40.92;18.88;;;3.00;99.90;;;;;;4995999;28;20026;-79
2023/01/24 12:18:17;;;;;;;35.67;18.10;;;3.00;99.90;;;;;;4978936;28;20037;-79
2023/01/24 12:20:58;;;;;;;37.70;18.13;;;3.00;99.90;;;;;;4995411;28;20038;-81
2023/01/24 12:23:59;;;;;;;36.65;18.88;;;3.00;99.90;;;;;;4979221;28;20022;-80
2023/01/24 12:26:27;;;;;;;38.28;18.10;;;3.00;99.90;;;;;;4996067;28;20029;-79
2023/01/24 12:29:06;;;;;;;40.80;17.63;;;2.90;99.90;;;;;;4978580;28;20384;-79
2023/01/24 12:31:38;;;;;;;36.20;17.50;;;2.90;99.90;;;;;;4995791;28;20468;-79
2023/01/24 12:34:18;;;;;;;34.92;16.85;;;2.90;99.90;;;;;;4995905;28;20023;-79
2023/01/24 12:36:48;;;;;;;36.28;16.58;;;2.90;99.90;;;;;;4995502;28;20041;-79
2023/01/24 12:39:26;;;;;;;33.42;17.50;;;2.90;99.90;;;;;;4977490;28;20046;-79
2023/01/24 12:42:02;;;;;;;35.95;16.73;;;2.90;99.90;;;;;;4995379;28;20026;-79
2023/01/24 12:44:47;;;;;;;31.05;15.82;;;2.90;99.90;;;;;;4978031;28;20118;-79
2023/01/24 12:47:40;;;;;;;32.42;17.00;;;2.90;99.90;;;;;;4995358;28;20460;-79
2023/01/24 12:50:29;;;;;;;35.45;17.23;;;3.00;99.90;;;;;;4977504;28;20041;-79
2023/01/24 12:52:57;;;;;;;33.25;17.42;;;3.00;99.90;;;;;;4995165;28;20106;-79
2023/01/24 12:55:32;;;;;;;34.60;16.52;;;2.90;99.90;;;;;;4994753;28;20500;-79
2023/01/24 12:58:21;;;;;;;30.90;15.10;;;2.90;99.90;;;;;;4978269;28;20033;-79
2023/01/24 13:01:26;;;;;;;32.40;16.10;;;2.90;99.90;;;;;;4995165;28;20058;-80
2023/01/24 13:04:26;;;;;;;29.88;14.98;;;2.90;99.90;;;;;;4978097;28;20030;-80
2023/01/24 13:07:07;;;;;;;31.08;16.15;;;2.90;99.90;;;;;;4995743;28;20023;-80
2023/01/24 13:09:41;;;;;;;47.85;17.77;;;2.90;99.90;;;;;;4977948;28;20066;-80
2023/01/24 13:12:14;;;;;;;31.45;15.90;;;2.90;99.90;;;;;;4978688;28;20117;-79
2023/01/24 13:14:45;;;;;;;35.15;16.88;;;2.90;99.90;;;;;;4995177;28;20461;-80
2023/01/24 13:17:46;;;;;;;34.38;15.38;;;2.90;99.90;;;;;;4994945;28;20421;-80
2023/01/24 13:20:39;;;;;;;33.33;16.13;;;2.90;99.90;;;;;;4977519;28;20034;-79
2023/01/24 13:23:44;;;;;;;34.13;16.13;;;2.90;99.90;;;;;;4995187;28;20026;-80
2023/01/24 13:26:40;;;;;;;33.42;16.10;;;2.90;99.90;;;;;;4978446;28;20420;-80
2023/01/24 13:30:16;;;;;;;33.92;15.70;;;2.90;99.90;;;;;;4995544;28;20042;-80
2023/01/24 13:32:43;;;;;;;29.60;14.60;;;2.90;99.90;;;;;;4895606;29;20036;-80
2023/01/24 13:35:14;;;;;;;30.92;15.48;;;2.90;99.90;;;;;;4901013;29;20032;-81